sensor_id;sensor_type;location;lat;lon;timestamp;pressure;altitude;pressure_sealevel;temperature;humidity
8451;BME280;4262;50.980;13.892;2022-10-31T04:34:07;50752.84;;;-142.97;85.93
8451;BME280;4262;50.980;13.892;2022-10-31T04:36:35;50811.34;;;-142.97;86.12
8451;BME280;4262;50.980;13.892;2022-10-31T04:39:02;50782.09;;;-142.97;86.40
8451;BME280;4262;50.980;13.892;2022-10-31T04:41:37;50784.03;;;-142.97;86.27
8451;BME280;4262;50.980;13.892;2022-10-31T04:44:12;50760.63;;;-142.97;86.08
8451;BME280;4262;50.980;13.892;2022-10-31T04:46:39;50789.88;;;-142.97;85.75
8451;BME280;4262;50.980;13.892;2022-10-31T04:49:08;50756.75;;;-142.97;85.62
8451;BME280;4262;50.980;13.892;2022-10-31T04:51:36;50760.63;;;-142.97;86.07
8451;BME280;4262;50.980;13.892;2022-10-31T04:54:03;50768.44;;;-142.97;86.73
8451;BME280;4262;50.980;13.892;2022-10-31T04:56:49;50766.50;;;-142.97;87.19
8451;BME280;4262;50.980;13.892;2022-10-31T04:59:20;50795.75;;;-142.97;86.75
8451;BME280;4262;50.980;13.892;2022-10-31T05:01:52;50739.19;;;-142.97;86.73
8451;BME280;4262;50.980;13.892;2022-10-31T05:04:50;50778.19;;;-142.97;86.51
8451;BME280;4262;50.980;13.892;2022-10-31T05:07:17;50770.38;;;-142.97;87.06
8451;BME280;4262;50.980;13.892;2022-10-31T05:09:44;50750.88;;;-142.97;87.00
8451;BME280;4262;50.980;13.892;2022-10-31T05:12:13;50770.38;;;-142.97;88.00
8451;BME280;4262;50.980;13.892;2022-10-31T05:14:58;50768.44;;;-142.97;87.94
8451;BME280;4262;50.980;13.892;2022-10-31T05:17:44;50756.75;;;-142.97;88.00
8451;BME280;4262;50.980;13.892;2022-10-31T05:20:31;50764.53;;;-142.97;88.81
8451;BME280;4262;50.980;13.892;2022-10-31T05:23:20;50778.19;;;-142.97;89.41
8451;BME280;4262;50.980;13.892;2022-10-31T05:25:47;50754.78;;;-142.97;89.56
8451;BME280;4262;50.980;13.892;2022-10-31T05:28:14;50762.59;;;-142.97;89.60
8451;BME280;4262;50.980;13.892;2022-10-31T05:30:42;50776.25;;;-142.97;89.34
8451;BME280;4262;50.980;13.892;2022-10-31T05:33:12;50782.09;;;-142.97;88.47
8451;BME280;4262;50.980;13.892;2022-10-31T05:36:07;50756.75;;;-142.97;88.51
8451;BME280;4262;50.980;13.892;2022-10-31T05:38:39;50741.13;;;-142.97;88.08
8451;BME280;4262;50.980;13.892;2022-10-31T05:41:13;50766.50;;;-142.97;88.08
8451;BME280;4262;50.980;13.892;2022-10-31T05:43:44;50758.69;;;-142.97;87.88
8451;BME280;4262;50.980;13.892;2022-10-31T05:46:12;50774.28;;;-142.97;88.56
8451;BME280;4262;50.980;13.892;2022-10-31T05:48:58;50778.19;;;-142.97;87.23
8451;BME280;4262;50.980;13.892;2022-10-31T05:51:45;50750.88;;;-142.97;87.47
8451;BME280;4262;50.980;13.892;2022-10-31T05:54:12;50799.63;;;-142.97;88.54
8451;BME280;4262;50.980;13.892;2022-10-31T05:56:40;50772.34;;;-142.97;87.53
8451;BME280;4262;50.980;13.892;2022-10-31T05:59:07;50774.28;;;-142.97;87.87
8451;BME280;4262;50.980;13.892;2022-10-31T06:01:33;50811.34;;;-142.97;86.61
8451;BME280;4262;50.980;13.892;2022-10-31T06:04:04;50760.63;;;-142.97;86.89
8451;BME280;4262;50.980;13.892;2022-10-31T06:06:33;50762.59;;;-142.97;86.95
8451;BME280;4262;50.980;13.892;2022-10-31T06:09:01;50791.84;;;-142.97;86.23
8451;BME280;4262;50.980;13.892;2022-10-31T06:11:32;50776.25;;;-142.97;86.25
8451;BME280;4262;50.980;13.892;2022-10-31T06:14:02;50776.25;;;-142.97;86.15
8451;BME280;4262;50.980;13.892;2022-10-31T06:16:46;50801.59;;;-142.97;85.76
8451;BME280;4262;50.980;13.892;2022-10-31T06:19:33;50731.38;;;-142.97;85.35
8451;BME280;4262;50.980;13.892;2022-10-31T06:21:59;50762.59;;;-142.97;85.62
8451;BME280;4262;50.980;13.892;2022-10-31T06:24:29;50770.38;;;-142.97;85.71
8451;BME280;4262;50.980;13.892;2022-10-31T06:27:01;50764.53;;;-142.97;85.01
8451;BME280;4262;50.980;13.892;2022-10-31T06:29:29;50768.44;;;-142.97;85.62
8451;BME280;4262;50.980;13.892;2022-10-31T06:32:04;50762.59;;;-142.97;86.17
8451;BME280;4262;50.980;13.892;2022-10-31T06:34:37;50758.69;;;-142.97;86.03
8451;BME280;4262;50.980;13.892;2022-10-31T06:37:05;50785.97;;;-142.97;85.78
8451;BME280;4262;50.980;13.892;2022-10-31T06:39:35;50758.69;;;-142.97;86.54
8451;BME280;4262;50.980;13.892;2022-10-31T06:42:04;50782.09;;;-142.97;85.78
8451;BME280;4262;50.980;13.892;2022-10-31T06:44:32;50745.03;;;-142.97;85.11
8451;BME280;4262;50.980;13.892;2022-10-31T06:47:18;50770.38;;;-142.97;85.74
8451;BME280;4262;50.980;13.892;2022-10-31T06:50:06;50741.13;;;-142.97;84.83
8451;BME280;4262;50.980;13.892;2022-10-31T06:52:33;50776.25;;;-142.97;84.92
8451;BME280;4262;50.980;13.892;2022-10-31T06:55:05;50745.03;;;-142.97;84.69
8451;BME280;4262;50.980;13.892;2022-10-31T06:57:32;50747.00;;;-142.97;84.82
8451;BME280;4262;50.980;13.892;2022-10-31T06:59:59;50776.25;;;-142.97;85.10
8451;BME280;4262;50.980;13.892;2022-10-31T07:02:36;50747.00;;;-142.97;84.05
8451;BME280;4262;50.980;13.892;2022-10-31T07:05:05;50785.97;;;-142.97;84.45
8451;BME280;4262;50.980;13.892;2022-10-31T07:07:32;50772.34;;;-142.97;84.12
8451;BME280;4262;50.980;13.892;2022-10-31T07:09:58;50748.94;;;-142.97;83.95
8451;BME280;4262;50.980;13.892;2022-10-31T07:12:43;50784.03;;;-142.97;84.12
8451;BME280;4262;50.980;13.892;2022-10-31T07:15:10;50793.78;;;-142.97;84.38
8451;BME280;4262;50.980;13.892;2022-10-31T07:17:37;50778.19;;;-142.97;84.44
8451;BME280;4262;50.980;13.892;2022-10-31T07:20:06;50754.78;;;-142.97;83.76
8451;BME280;4262;50.980;13.892;2022-10-31T07:22:34;50776.25;;;-142.97;83.21
8451;BME280;4262;50.980;13.892;2022-10-31T07:25:02;50754.78;;;-142.97;84.11
8451;BME280;4262;50.980;13.892;2022-10-31T07:28:07;50776.25;;;-142.97;84.05
8451;BME280;4262;50.980;13.892;2022-10-31T07:30:33;50743.09;;;-142.97;83.15
8451;BME280;4262;50.980;13.892;2022-10-31T07:33:00;50772.34;;;-142.97;82.94
8451;BME280;4262;50.980;13.892;2022-10-31T07:35:53;50758.69;;;-142.97;83.64
8451;BME280;4262;50.980;13.892;2022-10-31T07:38:23;50750.88;;;-142.97;82.91
8451;BME280;4262;50.980;13.892;2022-10-31T07:40:51;50787.94;;;-142.97;82.76
8451;BME280;4262;50.980;13.892;2022-10-31T07:43:20;50758.69;;;-142.97;83.27
8451;BME280;4262;50.980;13.892;2022-10-31T07:46:17;50754.78;;;-142.97;82.99
8451;BME280;4262;50.980;13.892;2022-10-31T07:49:19;50756.75;;;-142.97;83.46
8451;BME280;4262;50.980;13.892;2022-10-31T07:52:04;50735.28;;;-142.97;83.01
8451;BME280;4262;50.980;13.892;2022-10-31T07:54:50;50747.00;;;-142.97;83.36
8451;BME280;4262;50.980;13.892;2022-10-31T07:57:21;50754.78;;;-142.97;82.26
8451;BME280;4262;50.980;13.892;2022-10-31T07:59:50;50768.44;;;-142.97;82.23
8451;BME280;4262;50.980;13.892;2022-10-31T08:02:17;50787.94;;;-142.97;81.85
8451;BME280;4262;50.980;13.892;2022-10-31T08:04:47;50754.78;;;-142.97;81.95
8451;BME280;4262;50.980;13.892;2022-10-31T08:07:46;50743.09;;;-142.97;82.51
8451;BME280;4262;50.980;13.892;2022-10-31T08:10:19;50733.34;;;-142.97;80.96
8451;BME280;4262;50.980;13.892;2022-10-31T08:12:46;50754.78;;;-142.97;80.75
8451;BME280;4262;50.980;13.892;2022-10-31T08:15:15;50748.94;;;-142.97;79.65
8451;BME280;4262;50.980;13.892;2022-10-31T08:17:41;50784.03;;;-142.97;79.76
8451;BME280;4262;50.980;13.892;2022-10-31T08:20:10;50727.50;;;-142.97;80.36
8451;BME280;4262;50.980;13.892;2022-10-31T08:22:43;50762.59;;;-142.97;79.53
8451;BME280;4262;50.980;13.892;2022-10-31T08:25:19;50748.94;;;-142.97;79.25
8451;BME280;4262;50.980;13.892;2022-10-31T08:27:48;50776.25;;;-142.97;78.20
8451;BME280;4262;50.980;13.892;2022-10-31T08:30:18;50735.28;;;-142.97;78.03
8451;BME280;4262;50.980;13.892;2022-10-31T08:33:02;50780.13;;;-142.97;77.22
8451;BME280;4262;50.980;13.892;2022-10-31T08:35:50;50754.78;;;-142.97;77.26
8451;BME280;4262;50.980;13.892;2022-10-31T08:38:42;50764.53;;;-142.97;78.11
8451;BME280;4262;50.980;13.892;2022-10-31T08:41:10;50750.88;;;-142.97;74.39
8451;BME280;4262;50.980;13.892;2022-10-31T08:43:37;50741.13;;;-142.97;71.33
8451;BME280;4262;50.980;13.892;2022-10-31T08:46:06;50752.84;;;-142.97;64.48
8451;BME280;4262;50.980;13.892;2022-10-31T08:48:33;50651.44;;;-142.97;59.77
8451;BME280;4262;50.980;13.892;2022-10-31T08:51:03;50653.41;;;-142.97;58.32
8451;BME280;4262;50.980;13.892;2022-10-31T08:53:31;50649.50;;;-142.97;53.73
8451;BME280;4262;50.980;13.892;2022-10-31T08:56:21;50602.69;;;-142.97;50.04
8451;BME280;4262;50.980;13.892;2022-10-31T08:58:48;50594.91;;;-142.97;49.58
8451;BME280;4262;50.980;13.892;2022-10-31T09:01:22;50585.16;;;-142.97;47.02
8451;BME280;4262;50.980;13.892;2022-10-31T09:03:49;50604.66;;;-142.97;46.51
8451;BME280;4262;50.980;13.892;2022-10-31T09:06:15;50579.31;;;-142.97;46.62
8451;BME280;4262;50.980;13.892;2022-10-31T09:08:42;50587.09;;;-142.97;46.08
8451;BME280;4262;50.980;13.892;2022-10-31T09:11:09;50612.44;;;-142.97;46.03
8451;BME280;4262;50.980;13.892;2022-10-31T09:13:56;50585.16;;;-142.97;45.00
8451;BME280;4262;50.980;13.892;2022-10-31T09:16:48;50546.16;;;-142.97;43.79
8451;BME280;4262;50.980;13.892;2022-10-31T09:19:21;50534.47;;;-142.97;42.34
8451;BME280;4262;50.980;13.892;2022-10-31T09:21:51;50542.25;;;-142.97;40.54
8451;BME280;4262;50.980;13.892;2022-10-31T09:24:18;50518.84;;;-142.97;40.10
8451;BME280;4262;50.980;13.892;2022-10-31T09:26:45;50552.00;;;-142.97;39.14
8451;BME280;4262;50.980;13.892;2022-10-31T09:29:32;50538.34;;;-142.97;39.60
8451;BME280;4262;50.980;13.892;2022-10-31T09:32:04;50528.59;;;-142.97;38.85
8451;BME280;4262;50.980;13.892;2022-10-31T09:34:36;50544.19;;;-142.97;37.96
8451;BME280;4262;50.980;13.892;2022-10-31T09:37:05;50559.81;;;-142.97;38.06
8451;BME280;4262;50.980;13.892;2022-10-31T09:39:34;50505.22;;;-142.97;37.86
8451;BME280;4262;50.980;13.892;2022-10-31T09:42:25;50491.56;;;-142.97;37.10
8451;BME280;4262;50.980;13.892;2022-10-31T09:45:01;50505.22;;;-142.97;36.99
8451;BME280;4262;50.980;13.892;2022-10-31T09:47:43;50513.00;;;-142.97;36.18
8451;BME280;4262;50.980;13.892;2022-10-31T09:50:39;50503.25;;;-142.97;35.60
8451;BME280;4262;50.980;13.892;2022-10-31T09:53:45;50501.31;;;-142.97;34.77
8451;BME280;4262;50.980;13.892;2022-10-31T09:56:20;50513.00;;;-142.97;34.78
8451;BME280;4262;50.980;13.892;2022-10-31T09:58:51;50468.16;;;-142.97;34.96
8451;BME280;4262;50.980;13.892;2022-10-31T10:01:28;50475.97;;;-142.97;34.19
8451;BME280;4262;50.980;13.892;2022-10-31T10:04:03;50487.66;;;-142.97;33.77
8451;BME280;4262;50.980;13.892;2022-10-31T10:07:05;50464.25;;;-142.97;33.17
8451;BME280;4262;50.980;13.892;2022-10-31T10:09:44;50485.72;;;-142.97;33.99
8451;BME280;4262;50.980;13.892;2022-10-31T10:12:41;50491.56;;;-142.97;33.23
8451;BME280;4262;50.980;13.892;2022-10-31T10:15:34;50477.91;;;-142.97;33.00
8451;BME280;4262;50.980;13.892;2022-10-31T10:18:09;50479.88;;;-142.97;32.78
8451;BME280;4262;50.980;13.892;2022-10-31T10:20:51;50466.22;;;-142.97;32.99
8451;BME280;4262;50.980;13.892;2022-10-31T10:23:32;50470.13;;;-142.97;32.85
8451;BME280;4262;50.980;13.892;2022-10-31T10:26:06;50468.16;;;-142.97;32.67
8451;BME280;4262;50.980;13.892;2022-10-31T10:28:40;50495.47;;;-142.97;32.31
8451;BME280;4262;50.980;13.892;2022-10-31T10:31:11;50454.50;;;-142.97;32.54
8451;BME280;4262;50.980;13.892;2022-10-31T10:33:44;50464.25;;;-142.97;31.17
8451;BME280;4262;50.980;13.892;2022-10-31T10:36:18;50493.50;;;-142.97;31.46
8451;BME280;4262;50.980;13.892;2022-10-31T10:38:51;50448.66;;;-142.97;31.45
8451;BME280;4262;50.980;13.892;2022-10-31T10:41:20;50456.47;;;-142.97;30.85
8451;BME280;4262;50.980;13.892;2022-10-31T10:43:49;50446.72;;;-142.97;31.44
8451;BME280;4262;50.980;13.892;2022-10-31T10:46:26;50458.41;;;-142.97;31.34
8451;BME280;4262;50.980;13.892;2022-10-31T10:49:17;50468.16;;;-142.97;31.05
8451;BME280;4262;50.980;13.892;2022-10-31T10:51:47;50442.81;;;-142.97;31.15
8451;BME280;4262;50.980;13.892;2022-10-31T10:54:54;50462.31;;;-142.97;30.31
8451;BME280;4262;50.980;13.892;2022-10-31T10:57:44;50452.56;;;-142.97;30.44
8451;BME280;4262;50.980;13.892;2022-10-31T11:00:21;50431.13;;;-142.97;30.09
8451;BME280;4262;50.980;13.892;2022-10-31T11:02:48;50474.00;;;-142.97;30.21
8451;BME280;4262;50.980;13.892;2022-10-31T11:05:23;50487.66;;;-142.97;30.57
8451;BME280;4262;50.980;13.892;2022-10-31T11:07:51;50470.13;;;-142.97;30.50
8451;BME280;4262;50.980;13.892;2022-10-31T11:10:18;50446.72;;;-142.97;30.61
8451;BME280;4262;50.980;13.892;2022-10-31T11:12:58;50450.63;;;-142.97;30.09
8451;BME280;4262;50.980;13.892;2022-10-31T11:15:27;50462.31;;;-142.97;30.29
8451;BME280;4262;50.980;13.892;2022-10-31T11:17:57;50452.56;;;-142.97;30.06
8451;BME280;4262;50.980;13.892;2022-10-31T11:20:28;50433.06;;;-142.97;30.85
8451;BME280;4262;50.980;13.892;2022-10-31T11:23:04;50446.72;;;-142.97;30.00
8451;BME280;4262;50.980;13.892;2022-10-31T11:25:32;50396.03;;;-142.97;29.92
8451;BME280;4262;50.980;13.892;2022-10-31T11:27:59;50462.31;;;-142.97;29.49
8451;BME280;4262;50.980;13.892;2022-10-31T11:30:26;50429.16;;;-142.97;29.79
8451;BME280;4262;50.980;13.892;2022-10-31T11:32:53;50438.91;;;-142.97;29.60
8451;BME280;4262;50.980;13.892;2022-10-31T11:35:22;50483.75;;;-142.97;29.92
8451;BME280;4262;50.980;13.892;2022-10-31T11:37:53;50438.91;;;-142.97;30.51
8451;BME280;4262;50.980;13.892;2022-10-31T11:40:24;50454.50;;;-142.97;30.38
8451;BME280;4262;50.980;13.892;2022-10-31T11:42:53;50427.22;;;-142.97;29.82
8451;BME280;4262;50.980;13.892;2022-10-31T11:45:29;50454.50;;;-142.97;29.85
8451;BME280;4262;50.980;13.892;2022-10-31T11:47:58;50466.22;;;-142.97;30.67
8451;BME280;4262;50.980;13.892;2022-10-31T11:50:35;50452.56;;;-142.97;30.57
8451;BME280;4262;50.980;13.892;2022-10-31T11:53:12;50477.91;;;-142.97;30.14
8451;BME280;4262;50.980;13.892;2022-10-31T11:55:42;50435.03;;;-142.97;29.73
8451;BME280;4262;50.980;13.892;2022-10-31T11:58:20;50442.81;;;-142.97;29.96
8451;BME280;4262;50.980;13.892;2022-10-31T12:00:49;50444.78;;;-142.97;29.79
8451;BME280;4262;50.980;13.892;2022-10-31T12:03:28;50454.50;;;-142.97;30.01
8451;BME280;4262;50.980;13.892;2022-10-31T12:06:01;50474.00;;;-142.97;30.69
8451;BME280;4262;50.980;13.892;2022-10-31T12:08:30;50444.78;;;-142.97;30.67
8451;BME280;4262;50.980;13.892;2022-10-31T12:11:05;50433.06;;;-142.97;31.12
8451;BME280;4262;50.980;13.892;2022-10-31T12:13:39;50456.47;;;-142.97;31.56
8451;BME280;4262;50.980;13.892;2022-10-31T12:16:12;50474.00;;;-142.97;31.62
8451;BME280;4262;50.980;13.892;2022-10-31T12:18:52;50503.25;;;-142.97;31.10
8451;BME280;4262;50.980;13.892;2022-10-31T12:21:44;50505.22;;;-142.97;31.80
8451;BME280;4262;50.980;13.892;2022-10-31T12:24:22;50497.41;;;-142.97;31.57
8451;BME280;4262;50.980;13.892;2022-10-31T12:27:04;50499.34;;;-142.97;31.24
8451;BME280;4262;50.980;13.892;2022-10-31T12:29:43;50468.16;;;-142.97;31.20
8451;BME280;4262;50.980;13.892;2022-10-31T12:32:24;50497.41;;;-142.97;31.36
8451;BME280;4262;50.980;13.892;2022-10-31T12:35:22;50481.81;;;-142.97;30.91
8451;BME280;4262;50.980;13.892;2022-10-31T12:38:02;50491.56;;;-142.97;30.72
8451;BME280;4262;50.980;13.892;2022-10-31T12:40:53;50472.06;;;-142.97;30.84
8451;BME280;4262;50.980;13.892;2022-10-31T12:43:35;50452.56;;;-142.97;30.94
8451;BME280;4262;50.980;13.892;2022-10-31T12:46:10;50481.81;;;-142.97;30.95
8451;BME280;4262;50.980;13.892;2022-10-31T12:49:05;50474.00;;;-142.97;31.52
8451;BME280;4262;50.980;13.892;2022-10-31T12:51:44;50493.50;;;-142.97;31.24
8451;BME280;4262;50.980;13.892;2022-10-31T12:54:29;50470.13;;;-142.97;31.57
8451;BME280;4262;50.980;13.892;2022-10-31T12:57:06;50483.75;;;-142.97;31.17
8451;BME280;4262;50.980;13.892;2022-10-31T12:59:39;50520.81;;;-142.97;31.70
8451;BME280;4262;50.980;13.892;2022-10-31T13:02:14;50497.41;;;-142.97;31.65
8451;BME280;4262;50.980;13.892;2022-10-31T13:04:48;50485.72;;;-142.97;31.96
8451;BME280;4262;50.980;13.892;2022-10-31T13:07:20;50497.41;;;-142.97;31.92
8451;BME280;4262;50.980;13.892;2022-10-31T13:09:54;50479.88;;;-142.97;32.08
8451;BME280;4262;50.980;13.892;2022-10-31T13:12:24;50511.06;;;-142.97;32.31
8451;BME280;4262;50.980;13.892;2022-10-31T13:14:58;50505.22;;;-142.97;32.36
8451;BME280;4262;50.980;13.892;2022-10-31T13:17:29;50481.81;;;-142.97;32.16
8451;BME280;4262;50.980;13.892;2022-10-31T13:20:13;50507.16;;;-142.97;32.07
8451;BME280;4262;50.980;13.892;2022-10-31T13:22:44;50509.09;;;-142.97;31.98
8451;BME280;4262;50.980;13.892;2022-10-31T13:25:15;50514.97;;;-142.97;32.12
8451;BME280;4262;50.980;13.892;2022-10-31T13:27:50;50497.41;;;-142.97;32.64
8451;BME280;4262;50.980;13.892;2022-10-31T13:30:20;50509.09;;;-142.97;31.75
8451;BME280;4262;50.980;13.892;2022-10-31T13:32:51;50507.16;;;-142.97;31.81
8451;BME280;4262;50.980;13.892;2022-10-31T13:35:25;50505.22;;;-142.97;32.16
8451;BME280;4262;50.980;13.892;2022-10-31T13:38:16;50550.06;;;-142.97;32.00
8451;BME280;4262;50.980;13.892;2022-10-31T13:40:52;50559.81;;;-142.97;33.00
8451;BME280;4262;50.980;13.892;2022-10-31T13:43:31;50540.31;;;-142.97;33.37
8451;BME280;4262;50.980;13.892;2022-10-31T13:46:00;50553.94;;;-142.97;32.48
8451;BME280;4262;50.980;13.892;2022-10-31T13:48:36;50577.34;;;-142.97;33.72
8451;BME280;4262;50.980;13.892;2022-10-31T13:51:06;50610.50;;;-142.97;34.63
8451;BME280;4262;50.980;13.892;2022-10-31T13:53:38;50641.69;;;-142.97;35.16
8451;BME280;4262;50.980;13.892;2022-10-31T13:56:15;50637.78;;;-142.97;35.33
8451;BME280;4262;50.980;13.892;2022-10-31T13:58:56;50639.75;;;-142.97;36.63
8451;BME280;4262;50.980;13.892;2022-10-31T14:01:26;50641.69;;;-142.97;36.44
8451;BME280;4262;50.980;13.892;2022-10-31T14:03:59;50665.09;;;-142.97;38.03
8451;BME280;4262;50.980;13.892;2022-10-31T14:06:38;50680.69;;;-142.97;37.73
8451;BME280;4262;50.980;13.892;2022-10-31T14:09:25;50682.66;;;-142.97;38.94
8451;BME280;4262;50.980;13.892;2022-10-31T14:11:53;50651.44;;;-142.97;39.02
8451;BME280;4262;50.980;13.892;2022-10-31T14:14:23;50684.59;;;-142.97;39.75
8451;BME280;4262;50.980;13.892;2022-10-31T14:16:56;50649.50;;;-142.97;38.56
8451;BME280;4262;50.980;13.892;2022-10-31T14:19:24;50676.78;;;-142.97;39.16
8451;BME280;4262;50.980;13.892;2022-10-31T14:21:52;50645.59;;;-142.97;40.13
8451;BME280;4262;50.980;13.892;2022-10-31T14:24:34;50630.00;;;-142.97;40.69
8451;BME280;4262;50.980;13.892;2022-10-31T14:27:03;50672.91;;;-142.97;40.45
8451;BME280;4262;50.980;13.892;2022-10-31T14:29:32;50665.09;;;-142.97;40.65
8451;BME280;4262;50.980;13.892;2022-10-31T14:32:19;50682.66;;;-142.97;40.59
8451;BME280;4262;50.980;13.892;2022-10-31T14:34:53;50661.19;;;-142.97;40.79
8451;BME280;4262;50.980;13.892;2022-10-31T14:37:34;50659.25;;;-142.97;41.08
8451;BME280;4262;50.980;13.892;2022-10-31T14:40:16;50647.53;;;-142.97;41.55
8451;BME280;4262;50.980;13.892;2022-10-31T14:42:56;50641.69;;;-142.97;42.33
8451;BME280;4262;50.980;13.892;2022-10-31T14:45:34;50674.84;;;-142.97;44.26
8451;BME280;4262;50.980;13.892;2022-10-31T14:48:14;50657.28;;;-142.97;44.85
8451;BME280;4262;50.980;13.892;2022-10-31T14:50:47;50696.28;;;-142.97;43.48
8451;BME280;4262;50.980;13.892;2022-10-31T14:53:19;50669.00;;;-142.97;43.83
8451;BME280;4262;50.980;13.892;2022-10-31T14:55:49;50674.84;;;-142.97;45.84
8451;BME280;4262;50.980;13.892;2022-10-31T14:58:20;50702.13;;;-142.97;46.34
8451;BME280;4262;50.980;13.892;2022-10-31T15:00:49;50659.25;;;-142.97;47.15
8451;BME280;4262;50.980;13.892;2022-10-31T15:03:24;50669.00;;;-142.97;48.34
8451;BME280;4262;50.980;13.892;2022-10-31T15:05:53;50667.03;;;-142.97;48.96
8451;BME280;4262;50.980;13.892;2022-10-31T15:08:32;50680.69;;;-142.97;50.22
8451;BME280;4262;50.980;13.892;2022-10-31T15:11:03;50690.44;;;-142.97;50.31
8451;BME280;4262;50.980;13.892;2022-10-31T15:13:30;50678.75;;;-142.97;51.16
8451;BME280;4262;50.980;13.892;2022-10-31T15:15:57;50706.03;;;-142.97;51.39
8451;BME280;4262;50.980;13.892;2022-10-31T15:18:26;50708.00;;;-142.97;52.22
8451;BME280;4262;50.980;13.892;2022-10-31T15:20:56;50688.50;;;-142.97;52.94
8451;BME280;4262;50.980;13.892;2022-10-31T15:23:26;50684.59;;;-142.97;53.83
8451;BME280;4262;50.980;13.892;2022-10-31T15:26:04;50674.84;;;-142.97;54.69
8451;BME280;4262;50.980;13.892;2022-10-31T15:28:31;50669.00;;;-142.97;55.42
8451;BME280;4262;50.980;13.892;2022-10-31T15:31:00;50672.91;;;-142.97;55.65
8451;BME280;4262;50.980;13.892;2022-10-31T15:33:31;50663.16;;;-142.97;56.20
8451;BME280;4262;50.980;13.892;2022-10-31T15:35:59;50665.09;;;-142.97;56.80
8451;BME280;4262;50.980;13.892;2022-10-31T15:38:28;50700.19;;;-142.97;56.81
8451;BME280;4262;50.980;13.892;2022-10-31T15:40:57;50708.00;;;-142.97;56.77
8451;BME280;4262;50.980;13.892;2022-10-31T15:43:27;50708.00;;;-142.97;57.47
8451;BME280;4262;50.980;13.892;2022-10-31T15:45:57;50713.84;;;-142.97;58.39
8451;BME280;4262;50.980;13.892;2022-10-31T15:48:24;50694.34;;;-142.97;57.96
8451;BME280;4262;50.980;13.892;2022-10-31T15:50:55;50719.69;;;-142.97;58.41
8451;BME280;4262;50.980;13.892;2022-10-31T15:53:25;50670.94;;;-142.97;58.89
8451;BME280;4262;50.980;13.892;2022-10-31T15:55:56;50713.84;;;-142.97;59.31
8451;BME280;4262;50.980;13.892;2022-10-31T15:58:24;50688.50;;;-142.97;60.12
8451;BME280;4262;50.980;13.892;2022-10-31T16:01:00;50690.44;;;-142.97;59.84
8451;BME280;4262;50.980;13.892;2022-10-31T16:03:29;50670.94;;;-142.97;59.96
8451;BME280;4262;50.980;13.892;2022-10-31T16:05:59;50711.88;;;-142.97;61.06
8451;BME280;4262;50.980;13.892;2022-10-31T16:08:32;50706.03;;;-142.97;61.43
8451;BME280;4262;50.980;13.892;2022-10-31T16:11:13;50665.09;;;-142.97;61.34
8451;BME280;4262;50.980;13.892;2022-10-31T16:13:51;50700.19;;;-142.97;61.49
8451;BME280;4262;50.980;13.892;2022-10-31T16:16:18;50678.75;;;-142.97;62.12
8451;BME280;4262;50.980;13.892;2022-10-31T16:18:48;50678.75;;;-142.97;62.16
8451;BME280;4262;50.980;13.892;2022-10-31T16:21:23;50661.19;;;-142.97;63.68
8451;BME280;4262;50.980;13.892;2022-10-31T16:23:54;50686.53;;;-142.97;64.76
8451;BME280;4262;50.980;13.892;2022-10-31T16:26:23;50708.00;;;-142.97;66.44
8451;BME280;4262;50.980;13.892;2022-10-31T16:28:52;50696.28;;;-142.97;66.27
8451;BME280;4262;50.980;13.892;2022-10-31T16:31:30;50678.75;;;-142.97;66.19
8451;BME280;4262;50.980;13.892;2022-10-31T16:34:05;50676.78;;;-142.97;66.33
8451;BME280;4262;50.980;13.892;2022-10-31T16:36:34;50709.94;;;-142.97;65.96
8451;BME280;4262;50.980;13.892;2022-10-31T16:39:04;50686.53;;;-142.97;65.88
8451;BME280;4262;50.980;13.892;2022-10-31T16:41:31;50694.34;;;-142.97;65.16
8451;BME280;4262;50.980;13.892;2022-10-31T16:44:02;50692.38;;;-142.97;66.04
8451;BME280;4262;50.980;13.892;2022-10-31T16:46:30;50684.59;;;-142.97;66.78
8451;BME280;4262;50.980;13.892;2022-10-31T16:48:58;50700.19;;;-142.97;66.60
8451;BME280;4262;50.980;13.892;2022-10-31T16:51:25;50708.00;;;-142.97;66.02
8451;BME280;4262;50.980;13.892;2022-10-31T16:53:56;50669.00;;;-142.97;66.32
8451;BME280;4262;50.980;13.892;2022-10-31T16:56:27;50684.59;;;-142.97;66.41
8451;BME280;4262;50.980;13.892;2022-10-31T16:59:10;50676.78;;;-142.97;65.99
8451;BME280;4262;50.980;13.892;2022-10-31T17:01:40;50704.09;;;-142.97;66.10
8451;BME280;4262;50.980;13.892;2022-10-31T17:04:12;50717.75;;;-142.97;66.26
8451;BME280;4262;50.980;13.892;2022-10-31T17:06:39;50676.78;;;-142.97;66.33
8451;BME280;4262;50.980;13.892;2022-10-31T17:09:08;50704.09;;;-142.97;66.86
8451;BME280;4262;50.980;13.892;2022-10-31T17:11:35;50669.00;;;-142.97;67.24
8451;BME280;4262;50.980;13.892;2022-10-31T17:14:04;50713.84;;;-142.97;67.19
8451;BME280;4262;50.980;13.892;2022-10-31T17:16:31;50678.75;;;-142.97;67.53
8451;BME280;4262;50.980;13.892;2022-10-31T17:18:58;50706.03;;;-142.97;68.05
8451;BME280;4262;50.980;13.892;2022-10-31T17:21:24;50682.66;;;-142.97;68.03
8451;BME280;4262;50.980;13.892;2022-10-31T17:23:52;50669.00;;;-142.97;68.21
8451;BME280;4262;50.980;13.892;2022-10-31T17:26:21;50694.34;;;-142.97;68.41
8451;BME280;4262;50.980;13.892;2022-10-31T17:28:47;50686.53;;;-142.97;68.34
8451;BME280;4262;50.980;13.892;2022-10-31T17:31:20;50690.44;;;-142.97;68.95
8451;BME280;4262;50.980;13.892;2022-10-31T17:33:47;50725.53;;;-142.97;69.21
8451;BME280;4262;50.980;13.892;2022-10-31T17:36:14;50704.09;;;-142.97;69.36
8451;BME280;4262;50.980;13.892;2022-10-31T17:38:41;50719.69;;;-142.97;70.47
8451;BME280;4262;50.980;13.892;2022-10-31T17:41:08;50690.44;;;-142.97;70.54
8451;BME280;4262;50.980;13.892;2022-10-31T17:43:36;50713.84;;;-142.97;70.16
8451;BME280;4262;50.980;13.892;2022-10-31T17:46:03;50684.59;;;-142.97;70.62
8451;BME280;4262;50.980;13.892;2022-10-31T17:48:32;50698.25;;;-142.97;70.10
8451;BME280;4262;50.980;13.892;2022-10-31T17:51:00;50690.44;;;-142.97;70.50
8451;BME280;4262;50.980;13.892;2022-10-31T17:53:28;50665.09;;;-142.97;70.52
8451;BME280;4262;50.980;13.892;2022-10-31T17:56:00;50700.19;;;-142.97;70.55
8451;BME280;4262;50.980;13.892;2022-10-31T17:58:27;50688.50;;;-142.97;70.57